Time;durP1;ratioP1;P1;durP2;ratioP2;P2;SDS_P1;SDS_P2;PMS_P1;PMS_P2;Temp;Humidity;BMP_temperature;BMP_pressure;BME280_temperature;BME280_humidity;BME280_pressure;Samples;Min_cycle;Max_cycle;Signal;HPM_P1;HPM_P2
2022/11/26 00:01:15;;;;;;;44.27;25.00;;;;;;;;;;760281;180;909313;-61
2022/11/26 00:03:40;;;;;;;49.60;26.27;;;;;;;;;;751811;184;916981;-62
2022/11/26 00:06:06;;;;;;;44.43;26.73;;;;;;;;;;766597;181;920184;-61
2022/11/26 00:08:32;;;;;;;39.50;24.60;;;;;;;;;;766439;183;636822;-62
2022/11/26 00:10:58;;;;;;;41.10;22.80;;;;;;;;;;750015;186;916270;-62
2022/11/26 00:13:25;;;;;;;44.93;26.30;;;;;;;;;;759688;182;816871;-64
2022/11/26 00:15:50;;;;;;;39.30;24.07;;;;;;;;;;780596;180;617904;-61
2022/11/26 00:18:16;;;;;;;40.30;24.67;;;;;;;;;;771648;182;812225;-66
2022/11/26 00:20:42;;;;;;;38.90;22.97;;;;;;;;;;762918;181;918916;-60
2022/11/26 00:23:09;;;;;;;45.60;26.10;;;;;;;;;;774032;181;716095;-64
2022/11/26 00:25:36;;;;;;;44.40;25.87;;;;;;;;;;770600;180;618594;-64
2022/11/26 00:28:02;;;;;;;34.47;22.43;;;;;;;;;;773779;180;914816;-61
2022/11/26 00:30:28;;;;;;;38.37;24.17;;;;;;;;;;772871;180;816335;-64
2022/11/26 00:32:54;;;;;;;41.07;24.70;;;;;;;;;;775617;179;637405;-65
2022/11/26 00:35:20;;;;;;;36.90;21.53;;;;;;;;;;754571;183;919798;-61
2022/11/26 00:37:46;;;;;;;55.03;23.37;;;;;;;;;;762737;180;919224;-61
2022/11/26 00:40:18;;;;;;;38.47;22.93;;;;;;;;;;764399;180;919231;-64
2022/11/26 00:42:44;;;;;;;39.30;23.60;;;;;;;;;;759797;183;841706;-61
2022/11/26 00:45:14;;;;;;;41.23;23.40;;;;;;;;;;760787;184;919589;-61
2022/11/26 00:47:40;;;;;;;34.87;21.37;;;;;;;;;;755905;185;921106;-61
2022/11/26 00:50:06;;;;;;;42.13;23.07;;;;;;;;;;778944;180;706972;-60
2022/11/26 00:52:32;;;;;;;35.67;20.73;;;;;;;;;;772386;180;818840;-64
2022/11/26 00:54:58;;;;;;;35.63;20.77;;;;;;;;;;755160;180;820086;-64
2022/11/26 00:57:24;;;;;;;34.80;22.13;;;;;;;;;;767537;180;817212;-65
2022/11/26 00:59:50;;;;;;;37.67;22.60;;;;;;;;;;766461;181;920121;-60
2022/11/26 01:02:16;;;;;;;34.35;20.20;;;;;;;;;;764912;180;806862;-61
2022/11/26 01:04:41;;;;;;;47.30;24.20;;;;;;;;;;762615;182;917800;-61
2022/11/26 01:07:07;;;;;;;39.83;22.97;;;;;;;;;;770302;183;898247;-61
2022/11/26 01:09:33;;;;;;;38.40;22.67;;;;;;;;;;758817;180;919702;-61
2022/11/26 01:11:59;;;;;;;42.00;21.70;;;;;;;;;;773589;180;919550;-65
2022/11/26 01:14:25;;;;;;;40.80;21.47;;;;;;;;;;776869;179;629317;-65
2022/11/26 01:16:51;;;;;;;43.77;23.53;;;;;;;;;;772805;180;930379;-61
2022/11/26 01:19:16;;;;;;;38.20;21.50;;;;;;;;;;758851;181;919413;-61
2022/11/26 01:21:42;;;;;;;36.57;20.80;;;;;;;;;;778703;180;919017;-64
2022/11/26 01:24:08;;;;;;;33.87;20.00;;;;;;;;;;772382;180;919280;-66
2022/11/26 01:26:34;;;;;;;32.53;18.57;;;;;;;;;;769571;180;919348;-64
2022/11/26 01:29:00;;;;;;;37.87;23.23;;;;;;;;;;766487;182;919168;-64
2022/11/26 01:31:26;;;;;;;34.22;19.55;;;;;;;;;;770371;180;899301;-61
2022/11/26 01:33:52;;;;;;;32.27;20.90;;;;;;;;;;761328;181;920751;-66
2022/11/26 01:36:20;;;;;;;38.10;20.40;;;;;;;;;;754824;183;919593;-61
2022/11/26 01:38:46;;;;;;;35.47;20.87;;;;;;;;;;767761;181;919311;-66
2022/11/26 01:41:15;;;;;;;29.97;20.27;;;;;;;;;;774493;179;918086;-65
2022/11/26 01:43:41;;;;;;;38.43;19.50;;;;;;;;;;776394;179;918731;-64
2022/11/26 01:46:10;;;;;;;33.78;19.00;;;;;;;;;;777357;180;816528;-61
2022/11/26 01:48:36;;;;;;;28.80;16.90;;;;;;;;;;770400;181;918975;-64
2022/11/26 01:51:02;;;;;;;32.53;17.13;;;;;;;;;;755913;183;917464;-65
2022/11/26 01:53:28;;;;;;;35.20;18.80;;;;;;;;;;766739;182;919448;-64
2022/11/26 01:55:54;;;;;;;42.95;19.45;;;;;;;;;;773437;181;918235;-66
2022/11/26 01:58:20;;;;;;;34.83;17.53;;;;;;;;;;766361;182;916909;-65
2022/11/26 02:00:46;;;;;;;43.37;22.50;;;;;;;;;;765164;182;919638;-61
2022/11/26 02:03:12;;;;;;;48.30;30.50;;;;;;;;;;769357;181;919283;-65
2022/11/26 02:05:38;;;;;;;55.60;35.37;;;;;;;;;;769568;179;918823;-61
2022/11/26 02:08:04;;;;;;;58.80;36.87;;;;;;;;;;761708;183;919067;-64
2022/11/26 02:10:30;;;;;;;60.07;38.63;;;;;;;;;;764489;181;913088;-64
2022/11/26 02:12:55;;;;;;;61.07;34.90;;;;;;;;;;771320;182;914910;-60
2022/11/26 02:15:21;;;;;;;45.07;30.70;;;;;;;;;;752920;184;924004;-61
2022/11/26 02:17:49;;;;;;;51.30;31.97;;;;;;;;;;756519;184;918279;-64
2022/11/26 02:20:15;;;;;;;55.50;34.07;;;;;;;;;;758066;185;918451;-60
2022/11/26 02:22:47;;;;;;;69.33;43.30;;;;;;;;;;766602;181;818550;-61
2022/11/26 02:25:30;;;;;;;69.10;45.27;;;;;;;;;;767219;181;917663;-61
2022/11/26 02:28:03;;;;;;;71.97;47.83;;;;;;;;;;756365;182;875671;-64
2022/11/26 02:30:29;;;;;;;72.17;45.60;;;;;;;;;;766515;181;918905;-64
2022/11/26 02:32:58;;;;;;;65.43;39.03;;;;;;;;;;778031;180;919189;-65
2022/11/26 02:35:25;;;;;;;57.37;35.40;;;;;;;;;;773752;180;919457;-61
2022/11/26 02:37:54;;;;;;;46.80;27.43;;;;;;;;;;767929;180;919549;-61
2022/11/26 02:40:20;;;;;;;40.23;22.70;;;;;;;;;;771146;180;919421;-64
2022/11/26 02:42:46;;;;;;;39.35;22.08;;;;;;;;;;778471;180;918511;-61
2022/11/26 02:45:12;;;;;;;40.73;22.57;;;;;;;;;;773055;180;921603;-61
2022/11/26 02:47:38;;;;;;;35.67;21.40;;;;;;;;;;764685;181;918846;-64
2022/11/26 02:50:06;;;;;;;41.93;23.87;;;;;;;;;;771123;181;916779;-61
2022/11/26 02:52:32;;;;;;;51.37;31.77;;;;;;;;;;777040;179;919481;-64
2022/11/26 02:54:57;;;;;;;49.33;33.13;;;;;;;;;;775672;179;918907;-60
2022/11/26 02:57:23;;;;;;;75.27;39.33;;;;;;;;;;768820;180;919286;-64
2022/11/26 02:59:49;;;;;;;42.45;27.15;;;;;;;;;;778672;180;819519;-64
2022/11/26 03:02:15;;;;;;;37.63;23.70;;;;;;;;;;771251;180;917736;-60
2022/11/26 03:04:41;;;;;;;38.47;23.20;;;;;;;;;;768837;180;922356;-60
2022/11/26 03:07:07;;;;;;;35.07;21.47;;;;;;;;;;764669;184;918767;-64
2022/11/26 03:09:39;;;;;;;37.10;22.33;;;;;;;;;;765103;182;920996;-67
2022/11/26 03:12:05;;;;;;;37.57;20.53;;;;;;;;;;767550;180;813132;-61
2022/11/26 03:14:31;;;;;;;29.63;19.90;;;;;;;;;;771118;180;813069;-61
2022/11/26 03:16:56;;;;;;;38.57;21.80;;;;;;;;;;771406;180;915529;-65
2022/11/26 03:19:22;;;;;;;29.92;19.00;;;;;;;;;;766341;181;918718;-64
2022/11/26 03:21:48;;;;;;;32.20;19.83;;;;;;;;;;771141;181;813108;-61
2022/11/26 03:24:14;;;;;;;34.00;18.93;;;;;;;;;;776509;180;789713;-64
2022/11/26 03:26:40;;;;;;;32.93;20.37;;;;;;;;;;776301;180;918856;-61
2022/11/26 03:29:06;;;;;;;38.77;20.23;;;;;;;;;;774825;180;915939;-63
2022/11/26 03:31:31;;;;;;;33.90;19.50;;;;;;;;;;772135;181;867176;-61
2022/11/26 03:33:57;;;;;;;34.47;19.70;;;;;;;;;;769762;180;919428;-61
2022/11/26 03:36:23;;;;;;;36.40;21.92;;;;;;;;;;768662;180;918832;-61
2022/11/26 03:38:49;;;;;;;40.37;19.83;;;;;;;;;;759826;183;919273;-61
2022/11/26 03:41:15;;;;;;;34.33;19.87;;;;;;;;;;764889;180;919038;-64
2022/11/26 03:43:41;;;;;;;35.70;20.35;;;;;;;;;;749936;187;919544;-64
2022/11/26 03:46:07;;;;;;;40.50;21.07;;;;;;;;;;759644;181;922715;-62
2022/11/26 03:48:32;;;;;;;32.33;19.90;;;;;;;;;;769878;181;918993;-64
2022/11/26 03:50:59;;;;;;;39.97;22.43;;;;;;;;;;769586;181;919828;-61
2022/11/26 03:53:25;;;;;;;35.00;19.70;;;;;;;;;;771336;180;913183;-60
2022/11/26 03:55:51;;;;;;;30.80;18.33;;;;;;;;;;772711;180;916135;-64
2022/11/26 03:58:16;;;;;;;38.00;23.47;;;;;;;;;;767840;180;815225;-61
2022/11/26 04:00:42;;;;;;;36.87;21.60;;;;;;;;;;764978;180;916372;-61
2022/11/26 04:03:09;;;;;;;39.22;21.15;;;;;;;;;;773580;180;917609;-61
2022/11/26 04:05:35;;;;;;;38.53;23.00;;;;;;;;;;776731;180;919606;-61
2022/11/26 04:08:01;;;;;;;40.67;23.00;;;;;;;;;;765649;181;918957;-60
2022/11/26 04:10:26;;;;;;;34.23;21.87;;;;;;;;;;770407;181;921893;-61
2022/11/26 04:12:52;;;;;;;40.23;23.23;;;;;;;;;;773289;180;919520;-64
2022/11/26 04:15:18;;;;;;;33.03;21.20;;;;;;;;;;767682;180;928513;-66
2022/11/26 04:17:44;;;;;;;39.00;23.57;;;;;;;;;;762485;182;921561;-60
2022/11/26 04:20:10;;;;;;;35.80;22.20;;;;;;;;;;770400;182;915827;-61
2022/11/26 04:22:36;;;;;;;29.25;19.50;;;;;;;;;;770305;180;916014;-60
2022/11/26 04:25:02;;;;;;;35.70;22.03;;;;;;;;;;771436;180;919232;-59
2022/11/26 04:27:28;;;;;;;37.87;22.27;;;;;;;;;;774470;180;918068;-61
2022/11/26 04:29:54;;;;;;;43.67;22.53;;;;;;;;;;761719;183;919781;-61
2022/11/26 04:32:19;;;;;;;36.40;22.53;;;;;;;;;;758115;183;921246;-63
2022/11/26 04:34:45;;;;;;;39.47;23.70;;;;;;;;;;769560;181;917877;-61
2022/11/26 04:37:11;;;;;;;34.23;20.37;;;;;;;;;;771691;182;815801;-62
2022/11/26 04:39:37;;;;;;;37.57;23.73;;;;;;;;;;765237;182;870455;-64
2022/11/26 04:42:03;;;;;;;38.57;22.43;;;;;;;;;;764733;182;1018147;-60
2022/11/26 04:44:29;;;;;;;35.43;22.47;;;;;;;;;;770264;182;914568;-65
2022/11/26 04:46:54;;;;;;;45.73;23.03;;;;;;;;;;766992;182;916962;-65
2022/11/26 04:49:20;;;;;;;43.47;24.25;;;;;;;;;;772002;181;918579;-60
2022/11/26 04:51:46;;;;;;;34.80;21.60;;;;;;;;;;777034;180;842070;-61
2022/11/26 04:54:12;;;;;;;46.80;24.60;;;;;;;;;;773317;180;918335;-64
2022/11/26 04:56:38;;;;;;;40.73;24.07;;;;;;;;;;769657;180;918902;-61
2022/11/26 04:59:04;;;;;;;42.57;24.97;;;;;;;;;;752635;186;918950;-61
2022/11/26 05:01:30;;;;;;;44.37;24.17;;;;;;;;;;772169;181;779604;-63
2022/11/26 05:03:55;;;;;;;47.20;28.13;;;;;;;;;;773672;179;919439;-61
2022/11/26 05:06:21;;;;;;;44.53;25.33;;;;;;;;;;770124;180;927735;-61
2022/11/26 05:08:47;;;;;;;52.67;25.77;;;;;;;;;;771539;181;918885;-61
2022/11/26 05:11:13;;;;;;;53.63;28.08;;;;;;;;;;765707;181;924138;-63
2022/11/26 05:13:39;;;;;;;51.03;29.33;;;;;;;;;;765491;181;919655;-64
2022/11/26 05:16:05;;;;;;;48.50;28.07;;;;;;;;;;771265;181;920359;-60
2022/11/26 05:18:30;;;;;;;49.90;28.17;;;;;;;;;;767167;181;919088;-59
2022/11/26 05:20:56;;;;;;;63.80;29.30;;;;;;;;;;766770;181;923634;-66
2022/11/26 05:23:22;;;;;;;69.17;32.87;;;;;;;;;;777535;180;917591;-60
2022/11/26 05:25:48;;;;;;;71.27;33.73;;;;;;;;;;771557;180;919032;-59
2022/11/26 05:28:14;;;;;;;69.17;35.73;;;;;;;;;;770794;181;918737;-64
2022/11/26 05:30:40;;;;;;;57.47;31.73;;;;;;;;;;775436;180;918234;-60
2022/11/26 05:33:06;;;;;;;61.50;31.40;;;;;;;;;;770100;180;921936;-60
2022/11/26 05:35:31;;;;;;;71.80;34.80;;;;;;;;;;763678;181;919553;-63
2022/11/26 05:37:57;;;;;;;62.10;31.83;;;;;;;;;;765961;183;918990;-60
2022/11/26 05:40:23;;;;;;;68.17;34.60;;;;;;;;;;771636;183;819760;-64
2022/11/26 05:42:49;;;;;;;66.63;31.77;;;;;;;;;;769598;180;919379;-59
2022/11/26 05:45:15;;;;;;;64.63;32.90;;;;;;;;;;768484;180;919209;-61
2022/11/26 05:47:41;;;;;;;67.43;33.60;;;;;;;;;;775075;180;919454;-63
2022/11/26 05:50:07;;;;;;;57.07;29.60;;;;;;;;;;764545;180;919424;-60
2022/11/26 05:52:33;;;;;;;59.17;33.67;;;;;;;;;;762302;181;919022;-62
2022/11/26 05:54:59;;;;;;;66.10;32.30;;;;;;;;;;755570;181;918223;-60
2022/11/26 05:57:25;;;;;;;60.22;31.70;;;;;;;;;;767779;181;918756;-62
2022/11/26 05:59:50;;;;;;;72.60;36.47;;;;;;;;;;749821;185;919229;-63
2022/11/26 06:02:16;;;;;;;58.30;32.97;;;;;;;;;;742544;187;919359;-60
2022/11/26 06:04:42;;;;;;;69.97;34.17;;;;;;;;;;764256;184;918640;-61
2022/11/26 06:07:08;;;;;;;58.70;32.63;;;;;;;;;;752209;185;919187;-63
2022/11/26 06:09:34;;;;;;;61.72;32.72;;;;;;;;;;740504;187;919479;-62
2022/11/26 06:12:00;;;;;;;50.50;28.63;;;;;;;;;;752779;186;808208;-63
2022/11/26 06:14:25;;;;;;;59.97;31.30;;;;;;;;;;756353;180;843087;-61
2022/11/26 06:16:51;;;;;;;49.40;27.00;;;;;;;;;;760262;179;917336;-59
2022/11/26 06:19:17;;;;;;;55.80;28.60;;;;;;;;;;773196;179;919454;-61
2022/11/26 06:21:43;;;;;;;67.90;32.77;;;;;;;;;;762445;182;883113;-62
2022/11/26 06:24:09;;;;;;;64.63;33.23;;;;;;;;;;746506;185;868981;-62
2022/11/26 06:26:35;;;;;;;54.23;30.10;;;;;;;;;;745965;185;919228;-62
2022/11/26 06:29:01;;;;;;;62.43;31.80;;;;;;;;;;749142;185;918799;-61
2022/11/26 06:31:26;;;;;;;62.30;31.17;;;;;;;;;;746195;187;921352;-60
2022/11/26 06:33:53;;;;;;;65.78;31.70;;;;;;;;;;769646;179;921003;-63
2022/11/26 06:36:18;;;;;;;66.07;30.53;;;;;;;;;;773939;180;920160;-61
2022/11/26 06:38:44;;;;;;;58.53;31.47;;;;;;;;;;768069;180;918361;-61
2022/11/26 06:41:10;;;;;;;58.00;34.20;;;;;;;;;;767009;180;918685;-61
2022/11/26 06:43:36;;;;;;;64.65;32.13;;;;;;;;;;776566;181;918992;-61
2022/11/26 06:46:03;;;;;;;69.67;34.17;;;;;;;;;;773076;180;816921;-63
2022/11/26 06:48:28;;;;;;;71.68;37.13;;;;;;;;;;766150;181;919370;-63
2022/11/26 06:50:54;;;;;;;66.60;33.83;;;;;;;;;;770515;180;921939;-61
2022/11/26 06:53:20;;;;;;;57.87;31.50;;;;;;;;;;771676;179;862174;-65
2022/11/26 06:55:46;;;;;;;65.23;34.83;;;;;;;;;;766949;182;891355;-63
2022/11/26 06:58:13;;;;;;;55.72;31.90;;;;;;;;;;770643;181;910349;-62
2022/11/26 07:00:38;;;;;;;58.70;29.40;;;;;;;;;;776516;180;814389;-61
2022/11/26 07:03:03;;;;;;;66.10;31.52;;;;;;;;;;771315;180;915272;-61
2022/11/26 07:05:29;;;;;;;62.77;32.70;;;;;;;;;;769456;181;941233;-61
2022/11/26 07:07:55;;;;;;;71.47;33.40;;;;;;;;;;775280;181;812941;-63
2022/11/26 07:10:21;;;;;;;60.92;31.25;;;;;;;;;;763587;179;917066;-63
2022/11/26 07:12:47;;;;;;;70.37;35.20;;;;;;;;;;757602;180;853694;-63
2022/11/26 07:15:13;;;;;;;74.03;35.93;;;;;;;;;;768390;180;919008;-62
2022/11/26 07:17:39;;;;;;;58.97;35.67;;;;;;;;;;771209;180;929682;-64
2022/11/26 07:20:06;;;;;;;73.97;35.60;;;;;;;;;;773836;180;918010;-64
2022/11/26 07:22:32;;;;;;;64.90;35.05;;;;;;;;;;759681;182;920981;-63
2022/11/26 07:24:57;;;;;;;56.47;32.60;;;;;;;;;;775710;180;918667;-60
2022/11/26 07:27:23;;;;;;;69.77;32.90;;;;;;;;;;775253;180;919470;-64
2022/11/26 07:29:50;;;;;;;62.93;35.10;;;;;;;;;;777171;179;816809;-63
2022/11/26 07:32:15;;;;;;;66.37;33.77;;;;;;;;;;775873;179;919664;-61
2022/11/26 07:34:41;;;;;;;60.72;31.02;;;;;;;;;;770343;180;918248;-61
2022/11/26 07:37:07;;;;;;;59.07;31.90;;;;;;;;;;772999;179;918952;-64
2022/11/26 07:39:33;;;;;;;56.03;31.87;;;;;;;;;;772663;180;916900;-61
2022/11/26 07:41:58;;;;;;;47.03;28.83;;;;;;;;;;768428;180;815806;-65
2022/11/26 07:44:24;;;;;;;62.33;30.67;;;;;;;;;;761999;182;907946;-64
2022/11/26 07:46:50;;;;;;;52.90;28.63;;;;;;;;;;773412;180;625604;-62
2022/11/26 07:49:16;;;;;;;55.27;29.40;;;;;;;;;;773412;180;918658;-62
2022/11/26 07:51:43;;;;;;;50.33;29.27;;;;;;;;;;763574;179;901545;-64
2022/11/26 07:54:09;;;;;;;55.50;31.00;;;;;;;;;;756463;183;913913;-64
2022/11/26 07:56:34;;;;;;;51.60;27.37;;;;;;;;;;771775;181;918289;-65
2022/11/26 07:59:00;;;;;;;55.67;26.87;;;;;;;;;;772915;180;919603;-61
2022/11/26 08:01:28;;;;;;;48.67;26.67;;;;;;;;;;763845;182;642611;-61
2022/11/26 08:03:52;;;;;;;46.10;28.40;;;;;;;;;;766125;180;918378;-62
2022/11/26 08:06:18;;;;;;;54.63;28.13;;;;;;;;;;765581;183;815725;-62
2022/11/26 08:08:44;;;;;;;56.83;32.90;;;;;;;;;;763962;180;920135;-62
2022/11/26 08:11:11;;;;;;;55.53;29.13;;;;;;;;;;771505;180;813410;-64
2022/11/26 08:13:36;;;;;;;49.20;29.00;;;;;;;;;;766280;180;875100;-65
2022/11/26 08:16:02;;;;;;;46.57;28.20;;;;;;;;;;770737;180;925071;-64
2022/11/26 08:18:28;;;;;;;52.40;29.37;;;;;;;;;;766160;179;923284;-65
2022/11/26 08:20:54;;;;;;;49.55;27.35;;;;;;;;;;750731;184;819407;-61
2022/11/26 08:23:20;;;;;;;52.13;28.90;;;;;;;;;;751375;182;917205;-65
2022/11/26 08:25:46;;;;;;;58.90;28.03;;;;;;;;;;767401;180;914600;-62
2022/11/26 08:28:12;;;;;;;46.60;27.20;;;;;;;;;;772466;180;918396;-64
2022/11/26 08:30:38;;;;;;;60.33;31.27;;;;;;;;;;771066;183;816768;-61
2022/11/26 08:33:04;;;;;;;51.83;26.37;;;;;;;;;;775198;179;869209;-63
2022/11/26 08:35:29;;;;;;;53.50;29.47;;;;;;;;;;766620;180;910802;-64
2022/11/26 08:37:55;;;;;;;50.67;29.87;;;;;;;;;;774381;180;919030;-65
2022/11/26 08:40:21;;;;;;;54.30;28.13;;;;;;;;;;757040;183;918720;-64
2022/11/26 08:42:47;;;;;;;51.97;29.73;;;;;;;;;;757355;184;910088;-65
2022/11/26 08:45:13;;;;;;;70.87;32.90;;;;;;;;;;774559;180;918959;-65
2022/11/26 08:47:39;;;;;;;56.03;29.77;;;;;;;;;;766789;180;912091;-62
2022/11/26 08:50:05;;;;;;;57.77;28.60;;;;;;;;;;757894;182;912791;-64
2022/11/26 08:52:31;;;;;;;47.30;26.73;;;;;;;;;;767243;180;921964;-64
2022/11/26 08:54:57;;;;;;;43.23;28.13;;;;;;;;;;771706;180;915063;-62
2022/11/26 08:57:23;;;;;;;48.13;26.60;;;;;;;;;;771421;180;920238;-66
2022/11/26 08:59:50;;;;;;;48.63;28.60;;;;;;;;;;772485;180;918313;-65
2022/11/26 09:02:14;;;;;;;55.43;28.93;;;;;;;;;;774604;180;918419;-62
2022/11/26 09:04:40;;;;;;;51.10;27.98;;;;;;;;;;773219;181;919454;-62
2022/11/26 09:07:06;;;;;;;53.40;27.87;;;;;;;;;;771148;179;916770;-66
2022/11/26 09:09:32;;;;;;;43.83;25.60;;;;;;;;;;772992;180;919721;-64
2022/11/26 09:11:58;;;;;;;48.33;27.65;;;;;;;;;;767221;181;817924;-62
2022/11/26 09:14:23;;;;;;;56.07;30.37;;;;;;;;;;768957;181;918709;-64
2022/11/26 09:16:49;;;;;;;49.90;28.50;;;;;;;;;;770135;180;1021472;-62
2022/11/26 09:19:15;;;;;;;48.30;27.63;;;;;;;;;;757521;180;919400;-66
2022/11/26 09:21:41;;;;;;;43.40;26.43;;;;;;;;;;763242;181;816394;-65
2022/11/26 09:24:07;;;;;;;42.45;25.90;;;;;;;;;;766829;181;813120;-64
2022/11/26 09:26:33;;;;;;;44.03;26.30;;;;;;;;;;773793;180;915540;-65
2022/11/26 09:28:59;;;;;;;44.87;26.73;;;;;;;;;;771328;181;917941;-66
2022/11/26 09:31:24;;;;;;;45.90;25.27;;;;;;;;;;770624;181;917162;-65
2022/11/26 09:33:50;;;;;;;36.80;24.30;;;;;;;;;;775272;179;919410;-63
2022/11/26 09:36:16;;;;;;;45.77;26.73;;;;;;;;;;773921;180;919646;-61
2022/11/26 09:38:42;;;;;;;44.20;23.53;;;;;;;;;;766116;184;640537;-61
2022/11/26 09:41:09;;;;;;;40.90;22.63;;;;;;;;;;764612;184;630375;-65
2022/11/26 09:43:52;;;;;;;38.87;22.50;;;;;;;;;;767039;180;923299;-64
2022/11/26 09:46:18;;;;;;;34.77;20.30;;;;;;;;;;752960;181;627026;-61
2022/11/26 09:48:44;;;;;;;31.00;19.40;;;;;;;;;;768839;179;625821;-61
2022/11/26 09:51:10;;;;;;;31.53;20.63;;;;;;;;;;762930;183;618638;-66
2022/11/26 09:53:35;;;;;;;34.03;20.07;;;;;;;;;;771548;180;619180;-66
2022/11/26 09:56:01;;;;;;;33.30;21.00;;;;;;;;;;774949;180;626505;-66
2022/11/26 09:58:42;;;;;;;40.00;22.50;;;;;;;;;;763500;184;632519;-66
2022/11/26 10:01:08;;;;;;;31.00;19.30;;;;;;;;;;769672;180;627237;-62
2022/11/26 10:03:34;;;;;;;36.60;20.43;;;;;;;;;;777389;180;618009;-66
2022/11/26 10:05:59;;;;;;;32.53;20.27;;;;;;;;;;775602;180;628925;-66
2022/11/26 10:08:43;;;;;;;34.67;20.40;;;;;;;;;;773127;181;619622;-65
2022/11/26 10:11:28;;;;;;;38.37;22.77;;;;;;;;;;769792;179;788500;-62
2022/11/26 10:13:59;;;;;;;30.83;18.10;;;;;;;;;;749532;186;919090;-66
2022/11/26 10:16:26;;;;;;;32.67;21.30;;;;;;;;;;761672;181;927357;-66
2022/11/26 10:19:04;;;;;;;37.13;20.30;;;;;;;;;;777825;180;621213;-62
2022/11/26 10:21:32;;;;;;;36.33;21.47;;;;;;;;;;762482;183;919414;-64
2022/11/26 10:24:00;;;;;;;37.20;20.80;;;;;;;;;;763656;182;919780;-62
2022/11/26 10:26:27;;;;;;;30.87;19.30;;;;;;;;;;771242;180;636665;-67
2022/11/26 10:28:53;;;;;;;35.00;20.40;;;;;;;;;;767191;180;619252;-66
2022/11/26 10:31:21;;;;;;;31.40;19.90;;;;;;;;;;766026;181;627432;-62
2022/11/26 10:33:50;;;;;;;34.07;21.07;;;;;;;;;;773851;180;645304;-66
2022/11/26 10:36:16;;;;;;;37.05;21.12;;;;;;;;;;774329;180;775860;-65
2022/11/26 10:38:42;;;;;;;41.40;21.57;;;;;;;;;;772083;181;889555;-63
2022/11/26 10:41:08;;;;;;;34.43;21.83;;;;;;;;;;766170;181;634032;-62
2022/11/26 10:43:33;;;;;;;38.03;21.97;;;;;;;;;;760844;180;625789;-62
2022/11/26 10:45:59;;;;;;;36.97;21.70;;;;;;;;;;770626;183;623606;-67
2022/11/26 10:48:27;;;;;;;36.50;21.50;;;;;;;;;;756968;184;620453;-66
2022/11/26 10:50:57;;;;;;;37.97;22.57;;;;;;;;;;751413;184;791560;-62
2022/11/26 10:53:22;;;;;;;32.03;20.77;;;;;;;;;;758954;182;627213;-62
2022/11/26 10:55:48;;;;;;;42.40;24.67;;;;;;;;;;756786;185;633235;-62
2022/11/26 10:58:14;;;;;;;38.60;21.10;;;;;;;;;;751337;183;636059;-65
2022/11/26 11:00:40;;;;;;;38.63;20.83;;;;;;;;;;751423;184;632185;-62
2022/11/26 11:03:06;;;;;;;40.43;22.40;;;;;;;;;;777704;180;630410;-62
2022/11/26 11:05:33;;;;;;;35.03;21.20;;;;;;;;;;771989;180;633694;-63
2022/11/26 11:07:58;;;;;;;35.90;21.15;;;;;;;;;;775320;179;918893;-61
2022/11/26 11:10:24;;;;;;;39.47;23.10;;;;;;;;;;774950;179;614559;-62
2022/11/26 11:12:55;;;;;;;35.20;21.87;;;;;;;;;;763004;183;716827;-61
2022/11/26 11:15:23;;;;;;;31.20;20.50;;;;;;;;;;765282;181;820952;-62
2022/11/26 11:17:53;;;;;;;36.37;22.67;;;;;;;;;;770208;180;919028;-62
2022/11/26 11:20:20;;;;;;;35.03;23.60;;;;;;;;;;774825;180;1015211;-62
2022/11/26 11:22:44;;;;;;;34.57;21.43;;;;;;;;;;762876;181;914920;-61
2022/11/26 11:25:16;;;;;;;35.70;22.27;;;;;;;;;;756423;183;819945;-62
2022/11/26 11:27:43;;;;;;;44.00;25.63;;;;;;;;;;762268;181;913565;-65
2022/11/26 11:30:09;;;;;;;38.93;23.30;;;;;;;;;;776751;180;919569;-61
2022/11/26 11:32:35;;;;;;;46.33;24.10;;;;;;;;;;775537;180;926623;-61
2022/11/26 11:35:06;;;;;;;38.93;25.13;;;;;;;;;;772144;180;918422;-61
2022/11/26 11:37:32;;;;;;;40.90;25.20;;;;;;;;;;773221;180;813390;-61
2022/11/26 11:40:02;;;;;;;36.80;23.23;;;;;;;;;;780110;180;625095;-61
2022/11/26 11:42:28;;;;;;;37.40;23.27;;;;;;;;;;769995;180;897325;-64
2022/11/26 11:44:54;;;;;;;41.40;23.92;;;;;;;;;;768630;181;915034;-65
2022/11/26 11:47:21;;;;;;;39.77;22.30;;;;;;;;;;776572;180;918756;-61
2022/11/26 11:49:47;;;;;;;36.30;22.00;;;;;;;;;;773553;180;918626;-61
2022/11/26 11:52:29;;;;;;;38.07;24.77;;;;;;;;;;767985;180;914494;-62
2022/11/26 11:55:05;;;;;;;35.87;24.20;;;;;;;;;;767829;180;919202;-61
2022/11/26 11:57:31;;;;;;;43.38;23.23;;;;;;;;;;763692;180;919419;-62
2022/11/26 12:02:35;;;;;;;33.30;22.50;;;;;;;;;;771491;180;918721;-64
2022/11/26 12:05:01;;;;;;;35.03;20.93;;;;;;;;;;767860;180;912925;-60
2022/11/26 12:07:41;;;;;;;34.40;22.13;;;;;;;;;;772898;180;918444;-65
2022/11/26 12:10:13;;;;;;;32.57;19.07;;;;;;;;;;771773;179;630540;-60
2022/11/26 12:12:43;;;;;;;36.20;21.50;;;;;;;;;;773990;180;633585;-64
2022/11/26 12:15:08;;;;;;;29.63;20.50;;;;;;;;;;770037;182;617327;-60
2022/11/26 12:17:33;;;;;;;30.73;21.70;;;;;;;;;;778630;179;625959;-66
2022/11/26 12:19:58;;;;;;;31.47;22.10;;;;;;;;;;771950;180;635267;-61
2022/11/26 12:22:24;;;;;;;36.70;22.80;;;;;;;;;;762177;183;630908;-61
2022/11/26 12:24:51;;;;;;;35.13;22.67;;;;;;;;;;754251;184;643911;-65
2022/11/26 12:27:17;;;;;;;35.37;22.60;;;;;;;;;;758521;185;618259;-61
2022/11/26 12:29:43;;;;;;;39.53;22.03;;;;;;;;;;762646;184;824182;-64
2022/11/26 12:32:10;;;;;;;34.47;22.23;;;;;;;;;;768939;183;624962;-61
2022/11/26 12:34:38;;;;;;;35.87;22.60;;;;;;;;;;771599;180;615080;-65
2022/11/26 12:37:03;;;;;;;36.00;22.27;;;;;;;;;;772918;180;636418;-62
2022/11/26 12:39:43;;;;;;;33.97;22.53;;;;;;;;;;770077;182;613569;-61
2022/11/26 12:42:10;;;;;;;44.90;22.23;;;;;;;;;;772857;180;617334;-66
2022/11/26 12:44:36;;;;;;;34.80;21.27;;;;;;;;;;775010;180;642150;-61
2022/11/26 12:47:19;;;;;;;38.63;22.33;;;;;;;;;;775564;180;627440;-65
2022/11/26 12:49:45;;;;;;;36.67;21.67;;;;;;;;;;767834;180;615598;-65
2022/11/26 12:52:10;;;;;;;31.20;23.07;;;;;;;;;;779847;180;627306;-66
2022/11/26 12:54:38;;;;;;;35.77;21.77;;;;;;;;;;769952;180;633527;-65
2022/11/26 12:57:18;;;;;;;32.43;21.03;;;;;;;;;;772038;181;625159;-65
2022/11/26 12:59:45;;;;;;;39.33;22.60;;;;;;;;;;772875;180;625092;-64
2022/11/26 13:02:32;;;;;;;35.53;22.57;;;;;;;;;;777898;180;627437;-61
2022/11/26 13:04:58;;;;;;;35.17;23.70;;;;;;;;;;772614;180;625445;-61
2022/11/26 13:07:39;;;;;;;33.63;22.97;;;;;;;;;;775382;180;636525;-61
2022/11/26 13:10:22;;;;;;;33.73;21.50;;;;;;;;;;761941;182;614351;-61
2022/11/26 13:12:48;;;;;;;34.20;21.17;;;;;;;;;;767683;183;615279;-60
2022/11/26 13:15:24;;;;;;;37.50;22.57;;;;;;;;;;770826;180;623874;-61
2022/11/26 13:17:50;;;;;;;30.73;20.53;;;;;;;;;;778441;180;636462;-61
2022/11/26 13:20:37;;;;;;;34.63;20.37;;;;;;;;;;773249;179;637464;-61
2022/11/26 13:23:19;;;;;;;35.23;21.60;;;;;;;;;;761933;183;619027;-61
2022/11/26 13:25:49;;;;;;;30.90;20.30;;;;;;;;;;777120;180;617199;-61
2022/11/26 13:28:20;;;;;;;30.50;19.87;;;;;;;;;;781593;180;630335;-65
2022/11/26 13:30:51;;;;;;;37.17;20.97;;;;;;;;;;767922;180;612758;-66
2022/11/26 13:33:19;;;;;;;34.40;20.30;;;;;;;;;;763239;180;815959;-60
2022/11/26 13:35:47;;;;;;;35.13;22.37;;;;;;;;;;769358;180;916315;-60
2022/11/26 13:38:19;;;;;;;37.13;21.87;;;;;;;;;;780774;180;619705;-61
2022/11/26 13:40:59;;;;;;;39.63;21.27;;;;;;;;;;771243;180;627328;-61
2022/11/26 13:43:28;;;;;;;35.83;21.30;;;;;;;;;;758344;185;628079;-61
2022/11/26 13:45:54;;;;;;;33.83;21.40;;;;;;;;;;765049;181;630307;-62
2022/11/26 13:48:20;;;;;;;36.57;22.57;;;;;;;;;;770862;181;638523;-61
2022/11/26 13:50:46;;;;;;;43.50;22.63;;;;;;;;;;774340;180;619780;-61
2022/11/26 13:53:13;;;;;;;34.50;19.37;;;;;;;;;;775975;180;627862;-61
2022/11/26 13:55:41;;;;;;;35.03;22.20;;;;;;;;;;774298;180;625359;-65
2022/11/26 13:58:08;;;;;;;31.37;21.10;;;;;;;;;;759605;183;635958;-61
2022/11/26 14:00:33;;;;;;;33.27;20.37;;;;;;;;;;763847;183;612778;-65
2022/11/26 14:02:59;;;;;;;32.40;19.93;;;;;;;;;;755122;184;623274;-61
2022/11/26 14:05:24;;;;;;;30.40;20.50;;;;;;;;;;757327;185;634730;-64